createdAt,value
2019-03-31T00:01:07.271Z,32.67
2019-03-31T00:03:25.526Z,29.13
2019-03-31T00:05:55.642Z,29.03
2019-03-31T00:08:25.732Z,35.97
2019-03-31T00:10:55.820Z,25.43
2019-03-31T00:13:28.274Z,26.30
2019-03-31T00:16:00.666Z,31.03
2019-03-31T00:18:33.569Z,27.07
2019-03-31T00:21:03.635Z,26.60
2019-03-31T00:23:34.130Z,31.87
2019-03-31T00:26:04.198Z,26.50
2019-03-31T00:28:35.712Z,21.80
2019-03-31T00:31:06.609Z,28.67
2019-03-31T00:33:36.726Z,26.13
2019-03-31T00:36:06.792Z,25.57
2019-03-31T00:38:36.838Z,27.90
2019-03-31T00:41:06.931Z,25.87
2019-03-31T00:43:37.003Z,25.30
2019-03-31T00:46:07.049Z,29.50
2019-03-31T00:48:37.116Z,33.13
2019-03-31T00:51:07.181Z,28.00
2019-03-31T00:53:37.239Z,30.57
2019-03-31T00:56:07.447Z,32.27
2019-03-31T00:58:37.498Z,29.77
2019-03-31T01:01:36.407Z,30.80
2019-03-31T01:04:01.683Z,32.27
2019-03-31T01:06:31.905Z,28.20
2019-03-31T01:09:02.245Z,34.70
2019-03-31T01:11:34.486Z,30.23
2019-03-31T01:14:05.095Z,32.47
2019-03-31T01:16:35.393Z,41.60
2019-03-31T01:19:06.971Z,36.20
2019-03-31T01:21:37.029Z,29.97
2019-03-31T01:24:07.083Z,40.40
2019-03-31T01:26:37.121Z,40.97
2019-03-31T01:29:07.291Z,39.43
2019-03-31T01:31:49.744Z,38.47
2019-03-31T01:34:09.454Z,29.73
2019-03-31T01:36:39.517Z,33.83
2019-03-31T01:39:10.091Z,38.90
2019-03-31T01:41:41.294Z,44.73
2019-03-31T01:44:11.355Z,46.33
2019-03-31T01:46:41.417Z,37.10
2019-03-31T01:49:11.692Z,47.60
2019-03-31T01:51:41.738Z,43.57
2019-03-31T01:54:11.805Z,34.27
2019-03-31T01:56:44.570Z,40.50
2019-03-31T01:59:13.563Z,42.67
2019-03-31T02:01:43.736Z,38.60
2019-03-31T02:04:13.807Z,45.23
2019-03-31T02:06:43.891Z,42.43
2019-03-31T02:09:13.955Z,51.43
2019-03-31T02:11:44.011Z,43.07
2019-03-31T02:14:14.086Z,39.47
2019-03-31T02:16:44.138Z,45.90
2019-03-31T02:19:14.214Z,46.70
2019-03-31T02:21:44.227Z,44.70
2019-03-31T02:24:14.315Z,55.63
2019-03-31T02:26:44.352Z,50.27
2019-03-31T02:29:14.450Z,47.90
2019-03-31T02:31:44.468Z,55.07
2019-03-31T02:34:14.625Z,47.00
2019-03-31T02:36:44.643Z,54.93
2019-03-31T02:39:14.695Z,49.93
2019-03-31T02:41:44.766Z,55.73
2019-03-31T02:44:14.852Z,55.47
2019-03-31T02:46:44.882Z,52.43
2019-03-31T02:49:14.980Z,50.63
2019-03-31T02:51:44.996Z,60.87
2019-03-31T02:54:15.058Z,58.47
2019-03-31T02:56:45.732Z,54.77
2019-03-31T02:59:18.508Z,56.43
2019-03-31T03:01:49.315Z,56.43
2019-03-31T03:04:20.336Z,46.53
2019-03-31T03:06:53.797Z,54.27
2019-03-31T03:09:26.495Z,56.57
2019-03-31T03:11:58.757Z,55.87
2019-03-31T03:14:30.407Z,51.93
2019-03-31T03:17:00.455Z,59.80
2019-03-31T03:19:30.547Z,56.30
2019-03-31T03:22:00.571Z,58.70
2019-03-31T03:24:30.683Z,48.33
2019-03-31T03:27:01.052Z,54.07
2019-03-31T03:29:31.157Z,55.40
2019-03-31T03:32:01.209Z,45.90
2019-03-31T03:34:32.387Z,48.03
2019-03-31T03:37:02.477Z,59.63
2019-03-31T03:39:32.511Z,47.63
2019-03-31T03:42:02.591Z,51.30
2019-03-31T03:44:32.611Z,53.47
2019-03-31T03:47:02.648Z,52.80
2019-03-31T03:49:32.676Z,53.57
2019-03-31T03:52:02.774Z,51.43
2019-03-31T03:54:32.815Z,58.03
2019-03-31T03:57:02.874Z,66.83
2019-03-31T03:59:32.858Z,54.83
2019-03-31T04:02:02.932Z,54.43
2019-03-31T04:04:32.928Z,51.00
2019-03-31T04:07:03.020Z,54.70
2019-03-31T04:09:33.076Z,45.57
2019-03-31T04:12:03.164Z,50.50
2019-03-31T04:14:33.257Z,64.37
2019-03-31T04:17:03.387Z,62.60
2019-03-31T04:19:33.448Z,61.30
2019-03-31T04:22:03.484Z,60.37
2019-03-31T04:24:34.230Z,56.60
2019-03-31T04:27:04.373Z,58.00
2019-03-31T04:29:34.460Z,66.80
2019-03-31T04:32:04.543Z,55.80
2019-03-31T04:34:34.650Z,62.00
2019-03-31T04:37:04.727Z,60.90
2019-03-31T04:39:34.819Z,56.53
2019-03-31T04:42:04.914Z,68.30
2019-03-31T04:44:35.036Z,62.97
2019-03-31T04:47:05.175Z,53.63
2019-03-31T04:49:35.225Z,51.23
2019-03-31T04:52:05.314Z,37.37
2019-03-31T04:54:37.712Z,59.37
2019-03-31T04:57:07.792Z,52.30
2019-03-31T04:59:37.907Z,52.27
2019-03-31T05:02:07.975Z,53.53
2019-03-31T05:04:38.622Z,39.57
2019-03-31T05:07:08.788Z,46.50
2019-03-31T05:09:38.906Z,55.53
2019-03-31T05:12:08.998Z,47.57
2019-03-31T05:14:39.099Z,41.43
2019-03-31T05:17:09.258Z,35.87
2019-03-31T05:19:39.339Z,40.47
2019-03-31T05:22:09.459Z,44.67
2019-03-31T05:24:39.521Z,39.07
2019-03-31T05:27:10.927Z,49.93
2019-03-31T05:29:40.951Z,40.83
2019-03-31T05:32:11.045Z,45.43
2019-03-31T05:34:41.131Z,42.13
2019-03-31T05:37:11.183Z,48.93
2019-03-31T05:39:42.724Z,41.83
2019-03-31T05:42:14.423Z,38.20
2019-03-31T05:44:44.492Z,43.43
2019-03-31T05:47:14.610Z,32.13
2019-03-31T05:49:44.736Z,43.60
2019-03-31T05:52:16.877Z,41.73
2019-03-31T05:54:46.969Z,42.40
2019-03-31T05:57:17.051Z,38.10
2019-03-31T05:59:47.167Z,39.13
2019-03-31T06:02:17.252Z,51.00
2019-03-31T06:04:47.337Z,49.70
2019-03-31T06:07:17.436Z,46.77
2019-03-31T06:09:47.506Z,44.17
2019-03-31T06:12:17.605Z,58.20
2019-03-31T06:14:47.653Z,41.87
2019-03-31T06:17:19.320Z,37.63
2019-03-31T06:19:49.351Z,42.07
2019-03-31T06:22:19.398Z,40.27
2019-03-31T06:24:49.476Z,32.37
2019-03-31T06:27:19.519Z,45.23
2019-03-31T06:29:51.853Z,42.37
2019-03-31T06:32:21.984Z,42.53
2019-03-31T06:34:52.093Z,34.13
2019-03-31T06:37:22.168Z,45.07
2019-03-31T06:39:52.230Z,37.13
2019-03-31T06:42:22.450Z,34.90
2019-03-31T06:44:52.541Z,32.77
2019-03-31T06:47:22.619Z,35.20
2019-03-31T06:49:52.693Z,37.67
2019-03-31T06:52:22.798Z,31.27
2019-03-31T06:54:52.905Z,33.90
2019-03-31T06:57:23.016Z,29.83
2019-03-31T06:59:53.059Z,32.60
2019-03-31T07:02:25.490Z,29.63
2019-03-31T07:05:01.088Z,31.17
2019-03-31T07:07:34.393Z,29.70
2019-03-31T07:10:04.997Z,25.27
2019-03-31T07:12:35.092Z,31.77
2019-03-31T07:15:06.165Z,25.67
2019-03-31T07:17:36.243Z,26.93
2019-03-31T07:20:08.777Z,26.00
2019-03-31T07:22:40.877Z,28.10
2019-03-31T07:25:12.698Z,24.87
2019-03-31T07:27:42.752Z,16.20
2019-03-31T07:30:13.691Z,20.50
2019-03-31T07:32:43.882Z,22.73
2019-03-31T07:35:18.792Z,24.57
2019-03-31T07:37:47.641Z,23.80
2019-03-31T07:40:18.563Z,31.47
2019-03-31T07:42:51.048Z,22.80
2019-03-31T07:45:20.689Z,22.83
2019-03-31T07:47:50.817Z,20.10
2019-03-31T07:50:21.294Z,26.43
2019-03-31T07:52:51.471Z,21.13
2019-03-31T07:55:21.586Z,19.93
2019-03-31T07:57:54.439Z,22.87
2019-03-31T08:00:25.228Z,20.97
2019-03-31T08:02:55.348Z,18.93
2019-03-31T08:05:32.873Z,20.43
2019-03-31T08:07:57.292Z,18.30
2019-03-31T08:10:27.438Z,13.83
2019-03-31T08:12:58.115Z,17.67
2019-03-31T08:15:28.270Z,11.43
2019-03-31T08:17:58.378Z,11.97
2019-03-31T08:20:28.516Z,11.18
2019-03-31T08:22:58.607Z,13.77
2019-03-31T08:25:28.812Z,12.00
2019-03-31T08:28:00.355Z,13.57
2019-03-31T08:30:30.381Z,7.23
2019-03-31T08:33:00.500Z,10.57
2019-03-31T08:35:30.645Z,11.93
2019-03-31T08:38:00.676Z,7.87
2019-03-31T08:40:30.748Z,7.30
2019-03-31T08:43:00.838Z,9.93
2019-03-31T08:45:30.889Z,11.45
2019-03-31T08:48:01.025Z,6.78
2019-03-31T08:50:33.206Z,7.42
2019-03-31T08:53:02.828Z,6.43
2019-03-31T08:55:32.946Z,7.63
2019-03-31T08:58:03.064Z,5.77
2019-03-31T09:00:38.892Z,4.83
2019-03-31T09:03:08.982Z,7.90
2019-03-31T09:05:39.128Z,6.67
2019-03-31T09:08:09.183Z,8.00
2019-03-31T09:10:39.295Z,6.12
2019-03-31T09:13:09.378Z,8.77
2019-03-31T09:15:39.511Z,9.60
2019-03-31T09:18:09.557Z,12.03
2019-03-31T09:20:39.742Z,8.75
2019-03-31T09:23:11.364Z,7.77
2019-03-31T09:25:41.448Z,7.37
2019-03-31T09:28:11.570Z,14.97
2019-03-31T09:30:41.656Z,8.93
2019-03-31T09:33:11.732Z,10.57
2019-03-31T09:35:41.823Z,12.10
2019-03-31T09:38:11.956Z,9.80
2019-03-31T09:40:42.047Z,12.30
2019-03-31T09:43:12.144Z,13.57
2019-03-31T09:45:42.225Z,9.63
2019-03-31T09:48:13.573Z,9.10
2019-03-31T09:50:43.599Z,8.73
2019-03-31T09:53:13.667Z,8.73
2019-03-31T09:55:43.802Z,9.97
2019-03-31T09:58:13.865Z,5.33
2019-03-31T10:00:46.411Z,7.40
2019-03-31T10:03:16.505Z,8.28
2019-03-31T10:05:48.121Z,8.68
2019-03-31T10:08:21.723Z,8.40
2019-03-31T10:10:50.057Z,4.80
2019-03-31T10:13:20.143Z,5.45
2019-03-31T10:15:50.280Z,3.58
2019-03-31T10:18:20.355Z,6.08
2019-03-31T10:20:50.496Z,10.08
2019-03-31T10:23:20.560Z,8.75
2019-03-31T10:25:50.622Z,4.70
2019-03-31T10:28:20.704Z,5.62
2019-03-31T10:30:50.798Z,4.75
2019-03-31T10:33:20.923Z,5.00
2019-03-31T10:35:50.995Z,7.90
2019-03-31T10:38:21.072Z,4.90
2019-03-31T10:40:51.154Z,6.80
2019-03-31T10:43:21.235Z,4.70
2019-03-31T10:45:51.290Z,3.87
2019-03-31T10:48:21.523Z,4.10
2019-03-31T10:50:51.635Z,4.53
2019-03-31T10:53:21.751Z,3.90
2019-03-31T10:55:51.831Z,4.53
2019-03-31T10:58:21.984Z,4.20
2019-03-31T11:00:52.033Z,4.97
2019-03-31T11:03:22.112Z,5.37
2019-03-31T11:05:52.261Z,3.98
2019-03-31T11:08:22.348Z,4.25
2019-03-31T11:10:52.474Z,3.95
2019-03-31T11:13:22.546Z,2.80
2019-03-31T11:15:57.390Z,4.20
2019-03-31T11:18:26.480Z,4.67
2019-03-31T11:20:58.136Z,5.83
2019-03-31T11:23:29.759Z,3.40
2019-03-31T11:25:59.888Z,5.58
2019-03-31T11:28:29.959Z,5.78
2019-03-31T11:31:00.054Z,5.62
2019-03-31T11:33:30.128Z,3.17
2019-03-31T11:36:00.262Z,5.78
2019-03-31T11:38:30.357Z,6.42
2019-03-31T11:41:00.409Z,4.62
2019-03-31T11:43:30.526Z,5.05
2019-03-31T11:46:00.567Z,4.85
2019-03-31T11:48:30.754Z,3.65
2019-03-31T11:51:00.791Z,2.60
2019-03-31T11:53:30.794Z,4.12
2019-03-31T11:56:00.883Z,3.27
2019-03-31T11:58:32.417Z,4.20
2019-03-31T12:01:02.726Z,4.62
2019-03-31T12:03:32.762Z,5.08
2019-03-31T12:06:02.813Z,5.67
2019-03-31T12:08:32.926Z,3.77
2019-03-31T12:11:04.559Z,4.50
2019-03-31T12:13:34.610Z,6.65
2019-03-31T12:16:04.680Z,8.15
2019-03-31T12:18:34.739Z,3.00
2019-03-31T12:21:06.198Z,4.75
2019-03-31T12:23:36.282Z,6.72
2019-03-31T12:26:06.369Z,4.17
2019-03-31T12:28:36.490Z,6.17
2019-03-31T12:31:06.665Z,7.03
2019-03-31T12:33:36.725Z,6.33
2019-03-31T12:36:09.318Z,4.22
2019-03-31T12:38:39.375Z,7.53
2019-03-31T12:41:09.404Z,4.30
2019-03-31T12:43:39.471Z,6.22
2019-03-31T12:46:09.581Z,8.88
2019-03-31T12:48:39.674Z,8.13
2019-03-31T12:51:09.731Z,8.45
2019-03-31T12:53:39.826Z,6.00
2019-03-31T12:56:09.881Z,6.17
2019-03-31T12:58:39.950Z,6.80
2019-03-31T13:01:10.015Z,8.55
2019-03-31T13:03:40.072Z,6.15
2019-03-31T13:06:10.143Z,7.90
2019-03-31T13:08:40.180Z,6.65
2019-03-31T13:11:10.252Z,6.70
2019-03-31T13:13:40.323Z,11.25
2019-03-31T13:16:10.363Z,5.17
2019-03-31T13:18:40.440Z,4.03
2019-03-31T13:21:10.494Z,5.92
2019-03-31T13:23:41.499Z,7.47
2019-03-31T13:26:11.509Z,6.85
2019-03-31T13:28:41.556Z,6.22
2019-03-31T13:31:11.562Z,7.40
2019-03-31T13:33:41.674Z,8.20
2019-03-31T13:36:11.709Z,6.80
2019-03-31T13:38:41.779Z,7.10
2019-03-31T13:41:11.822Z,10.90
2019-03-31T13:43:41.861Z,7.65
2019-03-31T13:46:11.911Z,4.67
2019-03-31T13:48:41.968Z,6.28
2019-03-31T13:51:12.027Z,8.60
2019-03-31T13:53:42.086Z,6.12
2019-03-31T13:56:12.440Z,4.60
2019-03-31T13:58:42.692Z,6.37
2019-03-31T14:01:12.794Z,8.10
2019-03-31T14:03:42.827Z,5.97
2019-03-31T14:06:12.892Z,7.95
2019-03-31T14:08:42.915Z,4.78
2019-03-31T14:11:14.528Z,4.62
2019-03-31T14:13:44.563Z,8.75
2019-03-31T14:16:16.919Z,6.62
2019-03-31T14:18:46.981Z,3.77
2019-03-31T14:21:17.004Z,6.92
2019-03-31T14:23:47.130Z,5.33
2019-03-31T14:26:17.211Z,3.92
2019-03-31T14:28:47.278Z,3.72
2019-03-31T14:31:17.638Z,2.85
2019-03-31T14:33:48.933Z,4.92
2019-03-31T14:36:18.981Z,7.58
2019-03-31T14:38:49.062Z,6.75
2019-03-31T14:41:19.134Z,4.58
2019-03-31T14:43:50.125Z,5.30
2019-03-31T14:46:20.174Z,5.37
2019-03-31T14:48:50.211Z,5.75
2019-03-31T14:51:20.278Z,5.37
2019-03-31T14:53:50.359Z,6.08
2019-03-31T14:56:20.452Z,4.70
2019-03-31T14:58:50.533Z,3.27
2019-03-31T15:01:21.417Z,6.95
2019-03-31T15:03:51.563Z,3.33
2019-03-31T15:06:21.617Z,5.40
2019-03-31T15:08:54.687Z,5.00
2019-03-31T15:11:23.372Z,6.00
2019-03-31T15:13:53.406Z,2.85
2019-03-31T15:16:23.424Z,5.28
2019-03-31T15:18:53.514Z,8.28
2019-03-31T15:21:23.559Z,4.95
2019-03-31T15:23:53.643Z,3.87
2019-03-31T15:26:23.681Z,2.33
2019-03-31T15:28:53.743Z,4.85
2019-03-31T15:31:24.208Z,6.10
2019-03-31T15:33:54.291Z,2.67
2019-03-31T15:36:24.376Z,4.08
2019-03-31T15:39:07.857Z,2.58
2019-03-31T15:41:26.275Z,2.62
2019-03-31T15:43:56.410Z,2.27
2019-03-31T15:46:26.501Z,5.03
2019-03-31T15:48:56.690Z,5.28
2019-03-31T15:51:26.863Z,4.28
2019-03-31T15:53:58.213Z,5.10
2019-03-31T15:56:28.384Z,4.97
2019-03-31T15:58:58.644Z,3.40
2019-03-31T16:01:28.771Z,4.67
2019-03-31T16:03:58.938Z,4.33
2019-03-31T16:06:29.337Z,3.55
2019-03-31T16:08:59.020Z,2.50
2019-03-31T16:11:28.756Z,1.98
2019-03-31T16:13:58.365Z,3.95
2019-03-31T16:16:30.711Z,1.75
2019-03-31T16:18:59.227Z,1.60
2019-03-31T16:21:28.802Z,2.83
2019-03-31T16:23:58.390Z,3.35
2019-03-31T16:26:28.036Z,4.40
2019-03-31T16:28:57.661Z,3.33
2019-03-31T16:31:27.226Z,3.45
2019-03-31T16:33:56.929Z,3.52
2019-03-31T16:36:26.611Z,2.70
2019-03-31T16:38:56.261Z,5.75
2019-03-31T16:41:25.935Z,2.10
2019-03-31T16:43:55.641Z,4.03
2019-03-31T16:46:25.323Z,3.50
2019-03-31T16:48:54.986Z,5.45
2019-03-31T16:51:24.601Z,1.17
2019-03-31T16:53:54.279Z,4.42
2019-03-31T16:56:23.950Z,2.77
2019-03-31T16:58:53.685Z,4.90
2019-03-31T17:01:23.360Z,2.13
2019-03-31T17:03:53.144Z,6.78
2019-03-31T17:06:22.965Z,2.95
2019-03-31T17:08:52.616Z,4.60
2019-03-31T17:11:23.126Z,3.45
2019-03-31T17:13:52.879Z,1.50
2019-03-31T17:16:22.674Z,3.75
2019-03-31T17:18:52.533Z,3.90
2019-03-31T17:21:22.382Z,4.53
2019-03-31T17:23:52.211Z,4.23
2019-03-31T17:26:21.963Z,2.27
2019-03-31T17:28:51.541Z,3.27
2019-03-31T17:31:21.228Z,3.92
2019-03-31T17:33:50.882Z,3.37
2019-03-31T17:36:20.463Z,4.50
2019-03-31T17:38:49.967Z,4.13
2019-03-31T17:41:19.569Z,5.70
2019-03-31T17:43:49.155Z,6.43
2019-03-31T17:46:18.666Z,5.92
2019-03-31T17:48:48.187Z,4.05
2019-03-31T17:51:17.763Z,5.53
2019-03-31T17:53:47.316Z,7.83
2019-03-31T17:56:16.831Z,6.50
2019-03-31T17:58:46.383Z,8.63
2019-03-31T18:01:15.922Z,5.67
2019-03-31T18:03:45.495Z,7.70
2019-03-31T18:06:15.080Z,3.47
2019-03-31T18:08:44.645Z,3.50
2019-03-31T18:11:14.272Z,6.30
2019-03-31T18:13:43.842Z,2.93
2019-03-31T18:16:13.479Z,5.07
2019-03-31T18:18:43.107Z,8.03
2019-03-31T18:21:14.619Z,2.50
2019-03-31T18:23:44.219Z,3.73
2019-03-31T18:26:13.914Z,6.50
2019-03-31T18:28:43.965Z,7.27
2019-03-31T18:31:13.646Z,6.27
2019-03-31T18:33:43.334Z,7.10
2019-03-31T18:36:13.069Z,5.47
2019-03-31T18:38:42.700Z,3.93
2019-03-31T18:41:12.421Z,5.43
2019-03-31T18:43:51.303Z,4.97
2019-03-31T18:46:13.319Z,6.20
2019-03-31T18:48:43.027Z,6.20
2019-03-31T18:51:12.805Z,8.50
2019-03-31T18:53:53.996Z,5.90
2019-03-31T18:56:42.625Z,5.13
2019-03-31T18:59:29.970Z,8.13
2019-03-31T19:02:17.541Z,8.57
2019-03-31T19:05:24.395Z,7.57
2019-03-31T19:08:10.223Z,4.53
2019-03-31T19:10:57.280Z,5.27
2019-03-31T19:14:04.296Z,9.53
2019-03-31T19:17:11.247Z,5.00
2019-03-31T19:19:54.810Z,5.43
2019-03-31T19:22:35.067Z,5.13
2019-03-31T19:25:36.553Z,3.93
2019-03-31T19:28:23.833Z,5.53
2019-03-31T19:31:01.849Z,9.23
2019-03-31T19:33:49.242Z,8.23
2019-03-31T19:36:36.636Z,5.27
2019-03-31T19:39:27.482Z,3.47
2019-03-31T19:42:13.385Z,5.03
2019-03-31T19:45:04.924Z,5.87
2019-03-31T19:48:02.422Z,4.90
2019-03-31T19:51:00.741Z,3.83
2019-03-31T19:53:47.430Z,4.10
2019-03-31T19:56:26.825Z,4.80
2019-03-31T19:59:08.783Z,8.10
2019-03-31T20:01:53.403Z,3.73
2019-03-31T20:04:44.313Z,4.63
2019-03-31T20:07:44.910Z,7.13
2019-03-31T20:10:39.753Z,3.63
2019-03-31T20:13:40.370Z,5.33
2019-03-31T20:16:20.144Z,5.80
2019-03-31T20:19:06.788Z,4.67
2019-03-31T20:21:55.347Z,8.50
2019-03-31T20:24:47.922Z,4.10
2019-03-31T20:27:36.683Z,5.70
2019-03-31T20:30:14.289Z,2.70
2019-03-31T20:32:56.366Z,4.00
2019-03-31T20:35:44.826Z,4.27
2019-03-31T20:38:39.449Z,5.23
2019-03-31T20:41:26.982Z,3.80
2019-03-31T20:43:56.813Z,4.50
2019-03-31T20:46:26.382Z,4.77
2019-03-31T20:48:55.953Z,4.37
2019-03-31T20:51:25.460Z,6.90
2019-03-31T20:53:56.082Z,3.00
2019-03-31T20:56:25.645Z,4.80
2019-03-31T20:58:55.104Z,4.57
2019-03-31T21:01:24.704Z,4.23
2019-03-31T21:03:54.186Z,4.83
2019-03-31T21:06:23.717Z,6.40
2019-03-31T21:08:56.214Z,5.97
2019-03-31T21:11:25.769Z,5.60
2019-03-31T21:13:56.950Z,4.57
2019-03-31T21:16:26.473Z,7.53
2019-03-31T21:18:56.089Z,5.03
2019-03-31T21:21:25.606Z,5.93
2019-03-31T21:23:55.154Z,3.77
2019-03-31T21:26:24.725Z,3.87
2019-03-31T21:28:54.287Z,4.60
2019-03-31T21:31:23.815Z,5.93
2019-03-31T21:33:55.163Z,7.23
2019-03-31T21:36:29.949Z,5.87
2019-03-31T21:39:05.574Z,4.03
2019-03-31T21:41:39.318Z,1.47
2019-03-31T21:44:08.909Z,5.47
2019-03-31T21:46:38.425Z,8.70
2019-03-31T21:49:07.919Z,6.47
2019-03-31T21:51:37.452Z,6.73
2019-03-31T21:54:06.953Z,5.17
2019-03-31T21:56:36.534Z,7.60
2019-03-31T21:59:06.082Z,5.03
2019-03-31T22:01:35.554Z,3.73
2019-03-31T22:04:05.028Z,7.03
2019-03-31T22:06:34.583Z,5.13
2019-03-31T22:09:07.627Z,3.17
2019-03-31T22:11:37.151Z,2.97
2019-03-31T22:14:10.267Z,4.53
2019-03-31T22:16:37.959Z,2.83
2019-03-31T22:19:07.513Z,3.10
2019-03-31T22:21:38.321Z,2.70
2019-03-31T22:24:07.938Z,5.30
2019-03-31T22:26:37.665Z,3.30
2019-03-31T22:29:07.290Z,5.50
2019-03-31T22:31:36.833Z,4.93
2019-03-31T22:34:06.389Z,3.23
2019-03-31T22:36:35.914Z,6.00
2019-03-31T22:39:06.442Z,4.97
2019-03-31T22:41:35.976Z,3.47
2019-03-31T22:44:05.658Z,10.27
2019-03-31T22:46:35.169Z,5.63
2019-03-31T22:49:04.717Z,5.17
2019-03-31T22:51:34.243Z,7.87
2019-03-31T22:54:03.812Z,4.33
2019-03-31T22:56:33.347Z,2.40
2019-03-31T22:59:02.860Z,3.53
2019-03-31T23:01:32.371Z,5.43
2019-03-31T23:04:01.878Z,5.50
2019-03-31T23:06:31.402Z,6.40
2019-03-31T23:09:02.148Z,2.40
2019-03-31T23:11:33.484Z,3.70
2019-03-31T23:14:06.328Z,3.20
2019-03-31T23:16:35.865Z,4.90
2019-03-31T23:19:06.700Z,4.13
2019-03-31T23:21:36.215Z,4.17
2019-03-31T23:24:05.753Z,6.10
2019-03-31T23:26:35.253Z,4.90
2019-03-31T23:29:04.773Z,6.43
2019-03-31T23:31:34.283Z,5.00
2019-03-31T23:34:03.841Z,3.87
2019-03-31T23:36:33.405Z,4.77
2019-03-31T23:39:04.589Z,4.50
2019-03-31T23:41:34.077Z,4.70
2019-03-31T23:44:03.594Z,3.50
2019-03-31T23:46:33.100Z,3.67
2019-03-31T23:49:02.611Z,5.23
2019-03-31T23:51:32.138Z,2.33
2019-03-31T23:54:01.674Z,4.60
2019-03-31T23:56:32.646Z,3.80
2019-03-31T23:59:02.325Z,4.93
